Newfield, Pennsylvania
Current Conditions -  °F | °C
As of 6:15 PM on Friday 19 Dec 2014 (Local Time) from KN38 Reporting Station
Overcast Overcast  
Wind Chill: 15°   Ceiling: 1800
Heat Index: 25°   Visibility: 10mi
Dew Point: 19°   Wind: 9mph
Humidity: 80%   Direction: 310°NW
Pressure: 30.14"   Gusts: NA
Location:  41.8283°N, 77.7331°W
Report Text: KN38 192315Z AUTO 31008KT 10SM BKN018 OVC030 M04/M07 A3014 RMK AO2
Loading
Personal Weather Stations






























Interactive Weather Map New forecast layout! Learn more

10-Day Weather Forecast

Advertisements
Track Severe Weather on mobile